Harle — ZCTV4 — position and weather

sailwx.info

Track history (hours):
 
Tides and Currents Weather Stations Pressure Air Temp Water Temp Dewpoint Dewpoint Depression Visibility Wind Speed Wind Dir Waves Ship Positions

Harle

Last reported at 2016-Jun-28 07:12 UTC. Time now 2016-Jun-29 02:05 UTC.
Position N 40°34' E 014°19'.

Length 45 m; draft 2.7 m.

Type: Pleasure craft. MMSI: 319323000.

Date/timePositionNaut miles runAvg speedWind from/ knotsBaromVisibWave heightAir tempDewpointWater temp
2016-Jun-28 07:12N 40°34' E 014°19'812.0
2016-Jun-28 06:33N 40°38' E 014°10'15 7.1
2016-Jun-28 04:31N 40°45' E 013°53'0 0.0
2016-Jun-28 03:31N 40°45' E 013°53'0 0.0
2016-Jun-28 02:31N 40°45' E 013°53'0 0.0
2016-Jun-28 01:31N 40°45' E 013°53'0 0.0
2016-Jun-28 00:25N 40°45' E 013°53'0 0.0
2016-Jun-27 23:31N 40°45' E 013°53'0 0.0
2016-Jun-27 22:31N 40°45' E 013°53'0 0.0
2016-Jun-27 21:31N 40°45' E 013°53'0 0.0
2016-Jun-27 20:31N 40°45' E 013°53'0 0.0
2016-Jun-27 19:31N 40°45' E 013°53'0 0.0
2016-Jun-27 18:31N 40°45' E 013°53'0 0.0
2016-Jun-27 17:31N 40°45' E 013°53'0 0.0
2016-Jun-27 16:31N 40°45' E 013°53'0 0.0
2016-Jun-27 15:31N 40°45' E 013°53'0 0.0
2016-Jun-27 14:31N 40°45' E 013°53'0 0.2
2016-Jun-27 13:33N 40°45' E 013°54'8 8.4
2016-Jun-27 12:33N 40°43' E 014°04'1212.3
2016-Jun-27 11:33N 40°39' E 014°20'4 2.7
2016-Jun-27 10:16N 40°38' E 014°24'0 0.0
2016-Jun-26 16:22N 40°38' E 014°24'0 0.0
2016-Jun-26 15:28N 40°38' E 014°24'0 0.0
2016-Jun-26 14:28N 40°38' E 014°24'0 0.0
2016-Jun-26 13:16N 40°38' E 014°24'2 3.1
2016-Jun-26 12:34N 40°40' E 014°22'12 0.9
2016-Jun-25 23:23N 40°50' E 014°13'0 0.0
2016-Jun-25 20:14N 40°50' E 014°13'0 0.0
2016-Jun-25 19:29N 40°50' E 014°13'0 0.0
2016-Jun-25 17:17N 40°50' E 014°13'0 0.0
2016-Jun-25 14:17N 40°50' E 014°13'  
2016-Jun-22 20:14N 40°38' E 014°23'0 0.1
2016-Jun-22 19:27N 40°38' E 014°23'4 4.5
2016-Jun-22 18:33N 40°34' E 014°21'4 0.5
2016-Jun-22 10:33N 40°34' E 014°16'1 0.1
2016-Jun-21 20:14N 40°33' E 014°15'0 0.0
2016-Jun-21 19:33N 40°33' E 014°15'0 0.0
2016-Jun-21 18:33N 40°33' E 014°15'0 0.0
2016-Jun-21 17:33N 40°33' E 014°15'  
Track history (hours):
 
Tides and Currents Weather Stations Pressure Air Temp Water Temp Dewpoint Dewpoint Depression Visibility Wind Speed Wind Dir Waves Ship Positions

Harle

Last reported at 2016-Jun-28 07:12 UTC. Time now 2016-Jun-29 02:05 UTC.
Position N 40°34' E 014°19'.

Length 45 m; draft 2.7 m.

Type: Pleasure craft. MMSI: 319323000.

Date/timePositionNaut miles runAvg speedWind from/ knotsBaromVisibWave heightAir tempDewpointWater temp
2016-Jun-28 07:12N 40°34' E 014°19'812.0
2016-Jun-28 06:33N 40°38' E 014°10'15 7.1
2016-Jun-28 04:31N 40°45' E 013°53'0 0.0
2016-Jun-28 03:31N 40°45' E 013°53'0 0.0
2016-Jun-28 02:31N 40°45' E 013°53'0 0.0
2016-Jun-28 01:31N 40°45' E 013°53'0 0.0
2016-Jun-28 00:25N 40°45' E 013°53'0 0.0
2016-Jun-27 23:31N 40°45' E 013°53'0 0.0
2016-Jun-27 22:31N 40°45' E 013°53'0 0.0
2016-Jun-27 21:31N 40°45' E 013°53'0 0.0
2016-Jun-27 20:31N 40°45' E 013°53'0 0.0
2016-Jun-27 19:31N 40°45' E 013°53'0 0.0
2016-Jun-27 18:31N 40°45' E 013°53'0 0.0
2016-Jun-27 17:31N 40°45' E 013°53'0 0.0
2016-Jun-27 16:31N 40°45' E 013°53'0 0.0
2016-Jun-27 15:31N 40°45' E 013°53'0 0.0
2016-Jun-27 14:31N 40°45' E 013°53'0 0.2
2016-Jun-27 13:33N 40°45' E 013°54'8 8.4
2016-Jun-27 12:33N 40°43' E 014°04'1212.3
2016-Jun-27 11:33N 40°39' E 014°20'4 2.7
2016-Jun-27 10:16N 40°38' E 014°24'0 0.0
2016-Jun-26 16:22N 40°38' E 014°24'0 0.0
2016-Jun-26 15:28N 40°38' E 014°24'0 0.0
2016-Jun-26 14:28N 40°38' E 014°24'0 0.0
2016-Jun-26 13:16N 40°38' E 014°24'2 3.1
2016-Jun-26 12:34N 40°40' E 014°22'12 0.9
2016-Jun-25 23:23N 40°50' E 014°13'0 0.0
2016-Jun-25 20:14N 40°50' E 014°13'0 0.0
2016-Jun-25 19:29N 40°50' E 014°13'0 0.0
2016-Jun-25 17:17N 40°50' E 014°13'0 0.0
2016-Jun-25 14:17N 40°50' E 014°13'  
2016-Jun-22 20:14N 40°38' E 014°23'0 0.1
2016-Jun-22 19:27N 40°38' E 014°23'4 4.5
2016-Jun-22 18:33N 40°34' E 014°21'4 0.5
2016-Jun-22 10:33N 40°34' E 014°16'1 0.1
2016-Jun-21 20:14N 40°33' E 014°15'0 0.0
2016-Jun-21 19:33N 40°33' E 014°15'0 0.0
2016-Jun-21 18:33N 40°33' E 014°15'0 0.0
2016-Jun-21 17:33N 40°33' E 014°15'  

Dump ship's entire track history